Time;durP1;ratioP1;P1;durP2;ratioP2;P2;SDS_P1;SDS_P2;PMS_P1;PMS_P2;Temp;Humidity;BMP_temperature;BMP_pressure;BME280_temperature;BME280_humidity;BME280_pressure;Samples;Min_cycle;Max_cycle;Signal;HPM_P1;HPM_P2
2021/12/14 00:00:19;;;;;;;4.82;2.35;;;;;;;0.39;84.15;95021.44;5029484;28;20208;-69
2021/12/14 00:02:47;;;;;;;4.65;2.55;;;;;;;0.42;84.31;95019.03;5030065;28;20180;-70
2021/12/14 00:05:16;;;;;;;3.55;2.15;;;;;;;0.38;84.45;95015.28;5030436;28;20626;-69
2021/12/14 00:07:43;;;;;;;2.58;1.95;;;;;;;0.50;84.22;95013.25;5024887;28;20263;-69
2021/12/14 00:10:27;;;;;;;3.75;2.03;;;;;;;0.52;83.41;95021.00;5023244;28;20251;-70
2021/12/14 00:13:02;;;;;;;3.38;2.50;;;;;;;0.46;84.08;95014.00;5007719;28;20690;-69
2021/12/14 00:15:30;;;;;;;3.67;2.22;;;;;;;0.32;84.13;95011.78;5030831;28;20192;-70
2021/12/14 00:18:01;;;;;;;3.70;1.88;;;;;;;0.50;84.48;95015.13;5030828;28;20574;-70
2021/12/14 00:20:32;;;;;;;2.95;1.52;;;;;;;0.50;83.67;95023.91;5034898;28;20270;-70
2021/12/14 00:25:47;;;;;;;1.80;1.13;;;;;;;0.45;84.26;95015.88;5009354;28;20203;-70
2021/12/14 00:28:19;;;;;;;2.35;1.70;;;;;;;0.47;84.52;95024.41;5034397;28;20208;-71
2021/12/14 00:30:48;;;;;;;1.92;1.65;;;;;;;0.42;84.37;95026.22;5026507;28;20216;-70
2021/12/14 00:33:18;;;;;;;5.05;2.75;;;;;;;0.40;84.25;95029.16;5030267;28;20595;-69
2021/12/14 00:35:46;;;;;;;3.28;1.80;;;;;;;0.38;84.50;95031.28;5027935;28;20602;-70
2021/12/14 00:38:16;;;;;;;5.35;2.58;;;;;;;0.48;84.50;95036.69;5034286;28;20208;-69
2021/12/14 00:40:48;;;;;;;3.35;1.95;;;;;;;0.39;84.03;95032.91;5019533;28;20237;-70
2021/12/14 00:43:16;;;;;;;2.50;1.75;;;;;;;0.38;84.50;95031.28;5032742;28;20250;-69
2021/12/14 00:45:44;;;;;;;5.07;1.90;;;;;;;0.50;83.79;95034.56;5034644;28;20540;-71
2021/12/14 00:48:13;;;;;;;1.60;1.20;;;;;;;0.54;83.93;95034.88;5028839;28;20213;-70
2021/12/14 00:50:46;;;;;;;4.13;2.75;;;;;;;0.47;83.85;95035.06;5026370;28;20606;-70
2021/12/14 00:53:13;;;;;;;1.58;1.38;;;;;;;0.59;84.03;95025.03;5034353;28;20212;-70
2021/12/14 00:55:43;;;;;;;2.42;1.35;;;;;;;0.68;83.56;95031.50;5033999;28;20725;-70
2021/12/14 00:58:10;;;;;;;4.20;2.15;;;;;;;0.68;83.61;95031.50;5034076;28;20196;-70
2021/12/14 01:00:42;;;;;;;2.80;1.60;;;;;;;0.66;83.13;95038.97;5033859;28;20212;-70
2021/12/14 01:03:10;;;;;;;2.88;1.92;;;;;;;0.62;83.30;95032.53;5033828;28;20208;-71
2021/12/14 01:05:42;;;;;;;3.05;1.67;;;;;;;0.70;83.45;95037.38;5032160;28;20204;-69
2021/12/14 01:08:15;;;;;;;3.65;2.05;;;;;;;0.64;83.48;95035.75;5023451;28;20192;-69
2021/12/14 01:10:48;;;;;;;3.80;1.98;;;;;;;0.64;83.51;95035.75;5033758;28;20188;-70
2021/12/14 01:13:19;;;;;;;4.32;2.20;;;;;;;0.50;83.68;95023.91;5033398;28;20252;-70
2021/12/14 01:15:59;;;;;;;2.80;1.83;;;;;;;0.69;84.06;95038.44;5020253;28;20709;-70
2021/12/14 01:18:33;;;;;;;2.38;1.65;;;;;;;0.57;83.63;95037.81;5020179;28;20235;-70
2021/12/14 01:21:11;;;;;;;1.95;1.48;;;;;;;0.74;83.30;95039.53;5021617;28;20196;-70
2021/12/14 01:23:39;;;;;;;2.90;1.70;;;;;;;0.56;83.30;95028.22;5020260;28;20302;-69
2021/12/14 01:26:10;;;;;;;2.05;1.48;;;;;;;0.56;83.10;95038.88;5033820;28;20200;-70
2021/12/14 01:28:39;;;;;;;2.95;1.67;;;;;;;0.57;83.79;95040.47;5033458;28;20201;-69
2021/12/14 01:31:14;;;;;;;3.22;2.22;;;;;;;0.70;83.21;95033.91;5032024;28;20204;-71
2021/12/14 01:33:44;;;;;;;3.47;2.05;;;;;;;0.65;83.40;95028.56;5033429;28;20215;-71
2021/12/14 01:36:24;;;;;;;2.15;1.38;;;;;;;0.66;83.51;95038.97;5026635;28;20211;-71
2021/12/14 01:39:10;;;;;;;3.80;2.15;;;;;;;0.63;83.48;95034.16;5009663;28;20223;-71
2021/12/14 01:41:38;;;;;;;4.47;2.38;;;;;;;0.59;84.25;95027.72;5016233;28;20192;-71
2021/12/14 01:44:05;;;;;;;4.72;1.63;;;;;;;0.66;84.19;95022.19;5032896;28;20645;-70
2021/12/14 01:46:36;;;;;;;3.47;1.80;;;;;;;0.56;83.79;95030.88;5033400;28;20200;-69
2021/12/14 01:49:07;;;;;;;2.35;1.75;;;;;;;0.54;84.11;95022.34;5033196;28;20204;-69
2021/12/14 01:51:38;;;;;;;4.50;1.90;;;;;;;0.48;84.14;95020.69;5019670;28;20211;-69
2021/12/14 01:54:07;;;;;;;3.13;1.95;;;;;;;0.50;84.44;95023.91;5032860;28;20278;-69
2021/12/14 01:56:34;;;;;;;2.88;2.10;;;;;;;0.43;84.19;95025.97;5025468;28;20740;-69
2021/12/14 01:59:08;;;;;;;2.40;1.60;;;;;;;0.44;84.70;95030.25;5027692;28;20208;-70
2021/12/14 02:01:43;;;;;;;4.25;1.98;;;;;;;0.48;84.36;95042.00;5032489;28;20188;-70
2021/12/14 02:04:13;;;;;;;4.25;2.15;;;;;;;0.38;84.66;95025.94;5033072;28;20291;-71
2021/12/14 02:06:41;;;;;;;3.78;2.42;;;;;;;0.32;85.18;95032.28;5032735;28;20192;-70
2021/12/14 02:09:11;;;;;;;5.65;3.05;;;;;;;0.43;85.63;95031.31;5032562;28;20207;-70
2021/12/14 02:11:41;;;;;;;3.35;2.33;;;;;;;0.51;84.90;95025.53;5032381;28;20632;-70
2021/12/14 02:14:09;;;;;;;5.82;1.85;;;;;;;0.53;84.95;95031.41;5019083;28;20630;-70
2021/12/14 02:16:38;;;;;;;2.00;1.45;;;;;;;0.47;84.74;95020.94;5032411;28;20325;-70
2021/12/14 02:19:09;;;;;;;3.22;2.15;;;;;;;0.38;84.81;95025.94;5026920;28;20738;-70
2021/12/14 02:21:39;;;;;;;4.38;2.15;;;;;;;0.38;85.19;95028.63;5024851;28;20197;-70
2021/12/14 02:24:08;;;;;;;2.97;1.83;;;;;;;0.40;85.43;95031.84;5031443;28;20220;-70
2021/12/14 02:26:39;;;;;;;4.22;2.45;;;;;;;0.40;85.20;95028.38;5031810;28;20208;-70
2021/12/14 02:29:09;;;;;;;5.13;2.25;;;;;;;0.39;85.67;95030.22;5032296;28;20204;-70
2021/12/14 02:31:39;;;;;;;3.20;2.35;;;;;;;0.32;85.61;95021.63;5030582;28;20197;-70
2021/12/14 02:34:08;;;;;;;3.97;2.28;;;;;;;0.24;85.92;95024.75;5018691;28;20224;-69
2021/12/14 02:36:40;;;;;;;4.57;2.50;;;;;;;0.32;85.69;95032.28;5027521;28;20210;-70
2021/12/14 02:39:22;;;;;;;3.22;2.67;;;;;;;0.47;86.14;95035.06;5030363;28;20614;-70
2021/12/14 02:41:53;;;;;;;2.50;1.58;;;;;;;0.37;85.67;95035.00;5018207;28;20208;-70
2021/12/14 02:44:21;;;;;;;4.03;2.25;;;;;;;0.42;85.27;95031.56;5032340;28;20254;-70
2021/12/14 02:46:52;;;;;;;3.50;1.83;;;;;;;0.46;85.52;95030.81;5031696;28;20254;-70
2021/12/14 02:49:24;;;;;;;4.10;2.00;;;;;;;0.40;86.06;95039.84;5032184;28;20230;-70
2021/12/14 02:51:56;;;;;;;4.25;2.08;;;;;;;0.39;86.29;95043.56;5031885;28;20259;-70
2021/12/14 02:54:26;;;;;;;1.80;1.65;;;;;;;0.32;86.46;95038.41;5018488;28;20619;-70
2021/12/14 02:56:58;;;;;;;3.55;2.42;;;;;;;0.25;86.64;95042.34;5031885;28;20596;-70
2021/12/14 02:59:28;;;;;;;3.60;2.65;;;;;;;0.24;87.19;95048.75;5031697;28;20238;-70
2021/12/14 03:02:03;;;;;;;2.85;1.70;;;;;;;0.23;87.41;95049.78;5020520;28;20367;-70
2021/12/14 03:04:31;;;;;;;2.80;1.75;;;;;;;0.27;87.03;95041.03;5031084;28;20192;-71
2021/12/14 03:07:01;;;;;;;4.15;2.47;;;;;;;0.19;86.87;95046.00;5031563;28;20663;-70
2021/12/14 03:09:37;;;;;;;4.00;2.30;;;;;;;0.17;87.35;95045.47;5005688;28;20220;-70
2021/12/14 03:12:09;;;;;;;2.83;1.95;;;;;;;0.22;87.71;95037.53;5031741;28;20283;-69
2021/12/14 03:14:36;;;;;;;3.88;2.00;;;;;;;0.17;87.20;95050.78;5031420;28;20274;-70
2021/12/14 03:17:04;;;;;;;4.75;2.22;;;;;;;0.22;87.31;95058.84;5030775;28;20671;-70
2021/12/14 03:19:31;;;;;;;2.67;1.70;;;;;;;0.21;87.49;95047.38;5031492;28;20262;-70
2021/12/14 03:21:59;;;;;;;2.53;1.88;;;;;;;0.27;86.82;95045.56;5031357;28;20204;-69
2021/12/14 03:24:26;;;;;;;3.70;1.92;;;;;;;0.31;86.64;95047.47;5031535;28;20255;-70
2021/12/14 03:26:55;;;;;;;3.90;1.98;;;;;;;0.32;86.86;95040.28;5031308;28;20598;-71
2021/12/14 03:29:27;;;;;;;2.92;2.10;;;;;;;0.37;86.38;95051.00;5031684;28;20232;-71
2021/12/14 03:31:58;;;;;;;4.32;2.13;;;;;;;0.33;86.93;95049.88;5031537;28;20540;-69
2021/12/14 03:34:28;;;;;;;3.05;1.73;;;;;;;0.31;86.78;95049.31;5026018;28;20232;-70
2021/12/14 03:36:58;;;;;;;3.50;2.00;;;;;;;0.45;86.95;95047.84;5029908;28;20201;-69
2021/12/14 03:39:29;;;;;;;3.88;2.53;;;;;;;0.25;86.70;95050.34;5026805;28;21108;-71
2021/12/14 03:41:59;;;;;;;3.42;1.98;;;;;;;0.28;86.84;95047.16;4999009;28;20278;-69
2021/12/14 03:44:30;;;;;;;4.72;2.42;;;;;;;0.23;87.07;95057.78;5025601;28;20220;-70
2021/12/14 03:47:02;;;;;;;3.85;2.47;;;;;;;0.14;87.67;95056.59;5031082;28;20196;-69
2021/12/14 03:49:33;;;;;;;2.40;2.03;;;;;;;0.17;88.03;95054.25;5027575;28;20196;-70
2021/12/14 03:52:01;;;;;;;3.20;1.80;;;;;;;0.17;87.81;95064.09;5010052;28;20660;-71
2021/12/14 03:54:30;;;;;;;2.75;2.30;;;;;;;0.11;88.34;95057.13;5014258;28;20236;-70
2021/12/14 03:56:57;;;;;;;3.85;2.58;;;;;;;0.12;88.18;95061.41;5031245;28;20204;-70
2021/12/14 03:59:27;;;;;;;4.63;2.45;;;;;;;0.15;88.53;95058.22;5030845;28;20200;-70
2021/12/14 04:01:54;;;;;;;4.03;2.30;;;;;;;0.18;88.53;95058.53;5019626;28;20205;-70
2021/12/14 04:04:26;;;;;;;3.13;2.28;;;;;;;0.23;88.60;95060.44;5028642;28;20200;-70
2021/12/14 04:06:57;;;;;;;5.20;2.50;;;;;;;0.19;88.35;95065.47;5030503;28;20262;-70
2021/12/14 04:09:28;;;;;;;3.78;2.72;;;;;;;0.38;88.54;95063.25;5030791;28;20203;-70
2021/12/14 04:11:56;;;;;;;4.18;2.47;;;;;;;0.25;88.41;95072.47;5030852;28;20192;-70
2021/12/14 04:14:28;;;;;;;1.85;1.40;;;;;;;0.34;88.17;95072.81;5030583;28;20231;-70
2021/12/14 04:16:58;;;;;;;3.92;2.58;;;;;;;0.19;88.39;95072.66;5017583;28;20615;-69
2021/12/14 04:19:29;;;;;;;5.47;2.53;;;;;;;0.20;89.15;95075.06;5029989;28;20196;-70
2021/12/14 04:21:59;;;;;;;3.70;2.30;;;;;;;0.20;88.85;95076.94;5017395;28;20319;-70
2021/12/14 04:24:28;;;;;;;4.55;2.88;;;;;;;0.15;88.47;95079.53;5030137;28;20290;-70
2021/12/14 04:27:00;;;;;;;2.67;2.30;;;;;;;0.07;89.27;95085.31;5030701;28;20266;-71
2021/12/14 04:29:28;;;;;;;5.60;3.15;;;;;;;0.09;89.07;95075.22;5030227;28;20258;-71
2021/12/14 04:31:55;;;;;;;4.65;2.92;;;;;;;0.15;88.93;95080.34;5016722;28;20208;-70
2021/12/14 04:34:22;;;;;;;4.70;2.50;;;;;;;0.24;89.31;95086.03;5024768;28;20734;-70
2021/12/14 04:36:53;;;;;;;4.45;2.97;;;;;;;0.26;88.86;95082.06;5022257;28;20673;-70
2021/12/14 04:39:38;;;;;;;2.92;2.38;;;;;;;0.09;89.20;95088.53;5007335;28;20252;-70
2021/12/14 04:53:45;;;;;;;4.50;3.10;;;;;;;0.10;89.28;95093.63;4990380;28;20208;-71
2021/12/14 04:56:15;;;;;;;3.97;2.72;;;;;;;0.10;89.61;95093.63;4985881;28;20551;-71
2021/12/14 04:58:48;;;;;;;6.68;3.47;;;;;;;0.12;89.39;95085.38;5021633;28;20200;-72
2021/12/14 05:01:17;;;;;;;4.75;3.05;;;;;;;0.01;89.37;95089.78;5030282;28;20431;-71
2021/12/14 05:03:47;;;;;;;6.75;2.88;;;;;;;0.09;89.87;95094.66;5030831;28;20260;-70
2021/12/14 05:06:18;;;;;;;5.05;3.03;;;;;;;0.10;89.44;95092.81;5007906;28;20204;-71
2021/12/14 05:11:34;;;;;;;6.65;3.15;;;;;;;-0.06;89.92;95087.31;5033823;28;20196;-72
2021/12/14 05:14:07;;;;;;;5.38;3.50;;;;;;;-0.01;90.11;95098.03;5029451;28;20629;-72
2021/12/14 05:16:34;;;;;;;4.82;2.97;;;;;;;0.11;90.04;95094.41;5025033;28;20250;-72
2021/12/14 05:19:03;;;;;;;3.25;2.10;;;;;;;0.13;89.60;95097.66;5033742;28;20341;-72
2021/12/14 05:21:33;;;;;;;6.35;2.78;;;;;;;0.13;89.81;95097.66;5020738;28;20205;-72
2021/12/14 05:24:02;;;;;;;4.65;2.22;;;;;;;0.09;89.48;95092.00;5030972;28;20220;-73
2021/12/14 05:26:29;;;;;;;2.33;1.75;;;;;;;0.23;89.17;95095.06;5031959;28;20207;-72
2021/12/14 05:28:56;;;;;;;10.55;3.63;;;;;;;0.17;89.61;95098.72;5026252;28;20282;-71
2021/12/14 05:31:25;;;;;;;6.03;3.63;;;;;;;1.39;93.65;95090.63;5013299;28;20218;-71
2021/12/14 05:33:53;;;;;;;3.97;2.90;;;;;;;1.18;88.88;95085.44;5032005;28;20266;-73
2021/12/14 05:36:22;;;;;;;3.50;2.25;;;;;;;1.04;88.14;95090.44;5026051;28;20232;-73
2021/12/14 05:38:54;;;;;;;4.20;2.58;;;;;;;0.57;87.18;95092.97;5025020;28;21011;-73
2021/12/14 05:44:11;;;;;;;5.78;2.58;;;;;;;0.31;88.01;95105.28;5024540;28;20195;-74
2021/12/14 05:46:39;;;;;;;5.25;3.15;;;;;;;0.30;87.58;95108.97;5024485;28;20205;-73
2021/12/14 05:49:09;;;;;;;7.20;2.75;;;;;;;0.25;87.87;95111.63;5012466;28;20224;-74
2021/12/14 05:51:37;;;;;;;3.67;2.65;;;;;;;0.32;87.61;95106.88;5033137;28;20287;-74
2021/12/14 05:54:04;;;;;;;3.63;2.33;;;;;;;0.24;87.58;95115.34;5032345;28;20204;-74
2021/12/14 05:56:32;;;;;;;4.18;2.47;;;;;;;0.24;88.20;95120.66;5025411;28;20209;-74
2021/12/14 05:59:01;;;;;;;5.50;3.08;;;;;;;0.30;87.82;95119.63;5027291;28;20278;-74
2021/12/14 06:01:31;;;;;;;5.38;2.58;;;;;;;0.14;88.34;95125.84;5033077;28;20291;-75
2021/12/14 06:04:03;;;;;;;5.90;3.20;;;;;;;0.13;88.55;95129.59;5029536;28;20279;-74
2021/12/14 06:06:32;;;;;;;7.80;3.38;;;;;;;0.21;88.61;95121.16;5012842;28;20252;-72
2021/12/14 06:09:08;;;;;;;4.75;2.83;;;;;;;0.27;88.32;95126.28;5013386;28;20741;-73
2021/12/14 06:11:35;;;;;;;6.65;3.28;;;;;;;0.24;88.17;95131.31;5023553;28;20188;-73
2021/12/14 06:14:03;;;;;;;4.40;2.72;;;;;;;0.23;87.80;95132.38;5032196;28;20204;-73
2021/12/14 06:16:33;;;;;;;6.28;3.95;;;;;;;0.32;87.91;95138.84;5031098;28;20235;-73
2021/12/14 06:19:17;;;;;;;12.20;3.58;;;;;;;0.43;87.89;95124.56;5032310;28;20204;-73
2021/12/14 06:21:46;;;;;;;7.13;4.30;;;;;;;0.31;87.87;95131.91;5032066;28;20243;-73
2021/12/14 06:24:13;;;;;;;5.68;3.17;;;;;;;0.37;87.82;95130.91;5031887;28;20200;-74
2021/12/14 06:26:43;;;;;;;7.07;4.40;;;;;;;0.34;87.66;95137.56;5018549;28;20217;-73
2021/12/14 06:29:14;;;;;;;8.00;3.47;;;;;;;0.45;87.28;95137.66;5031670;28;20196;-74
2021/12/14 06:31:42;;;;;;;8.25;4.28;;;;;;;0.47;87.42;95140.88;5032232;28;20193;-73
2021/12/14 06:34:21;;;;;;;4.18;2.33;;;;;;;0.47;86.94;95141.66;5028885;28;20289;-75
2021/12/14 06:37:29;;;;;;;6.25;3.50;;;;;;;0.44;87.03;95147.50;5017142;28;20240;-73
2021/12/14 06:40:02;;;;;;;5.82;3.17;;;;;;;0.51;86.68;95140.13;5023156;28;20489;-73
2021/12/14 06:42:29;;;;;;;4.45;2.63;;;;;;;0.40;87.37;95151.75;5023228;28;20279;-74
2021/12/14 06:45:12;;;;;;;7.35;4.53;;;;;;;0.59;86.90;95155.66;5031720;28;20281;-73
2021/12/14 06:47:39;;;;;;;7.18;3.40;;;;;;;0.65;86.31;95149.31;5031551;28;20253;-74
2021/12/14 06:50:11;;;;;;;9.70;4.10;;;;;;;0.64;86.41;95155.69;5031128;28;20200;-74
2021/12/14 06:52:38;;;;;;;5.38;3.88;;;;;;;0.49;87.27;95158.22;5017559;28;20205;-73
2021/12/14 06:55:07;;;;;;;6.22;3.35;;;;;;;0.60;86.64;95157.25;5022251;28;20233;-73
2021/12/14 06:57:35;;;;;;;5.40;3.13;;;;;;;0.63;87.13;95163.94;5026973;28;20200;-74
2021/12/14 07:00:05;;;;;;;7.57;3.67;;;;;;;0.51;87.44;95168.63;5031274;28;20204;-73
2021/12/14 07:02:32;;;;;;;8.10;4.57;;;;;;;0.60;87.83;95172.44;5031393;28;20313;-73
2021/12/14 07:04:59;;;;;;;6.30;4.50;;;;;;;0.67;87.26;95176.53;5031702;28;20250;-73
2021/12/14 07:07:28;;;;;;;8.70;4.05;;;;;;;0.69;87.14;95169.06;5030827;28;20208;-73
2021/12/14 07:09:58;;;;;;;12.07;3.85;;;;;;;0.77;87.07;95167.00;5031226;28;20690;-71
2021/12/14 07:12:28;;;;;;;6.07;3.58;;;;;;;0.67;87.40;95179.19;5017647;28;20205;-74
2021/12/14 07:15:11;;;;;;;5.63;3.97;;;;;;;0.58;88.10;95172.69;5031940;28;20282;-72
2021/12/14 07:17:43;;;;;;;7.32;4.22;;;;;;;0.76;87.53;95170.72;5030742;28;20204;-73
2021/12/14 07:20:21;;;;;;;7.50;3.55;;;;;;;0.91;87.48;95179.69;5031321;28;20196;-72
2021/12/14 07:22:51;;;;;;;7.10;4.03;;;;;;;0.87;87.76;95183.91;5031249;28;20252;-74
2021/12/14 07:25:27;;;;;;;8.52;4.07;;;;;;;0.68;88.15;95183.44;5027285;28;20217;-74
2021/12/14 07:27:55;;;;;;;6.53;4.40;;;;;;;0.80;88.18;95185.19;5022256;28;20223;-73
2021/12/14 07:30:26;;;;;;;7.70;4.53;;;;;;;0.94;88.04;95184.50;5030644;28;20208;-73
2021/12/14 07:32:58;;;;;;;7.88;4.47;;;;;;;0.88;87.86;95190.03;5030675;28;20196;-73
2021/12/14 07:35:32;;;;;;;4.20;3.05;;;;;;;0.74;87.88;95188.84;5004547;28;20216;-73
2021/12/14 07:38:04;;;;;;;6.15;4.10;;;;;;;0.85;88.28;95187.88;5015150;28;20761;-74
2021/12/14 07:40:39;;;;;;;10.13;4.88;;;;;;;0.97;87.78;95194.66;5017491;28;20972;-74
2021/12/14 07:43:18;;;;;;;11.65;4.63;;;;;;;0.88;87.99;95196.19;5027318;28;20219;-74
2021/12/14 07:45:46;;;;;;;10.43;4.55;;;;;;;1.03;87.79;95193.66;5019093;28;20559;-71
2021/12/14 07:48:13;;;;;;;10.90;5.38;;;;;;;1.12;87.72;95201.19;5016696;28;20262;-71
2021/12/14 07:50:45;;;;;;;6.95;3.30;;;;;;;1.01;86.77;95185.09;5018873;28;20216;-72
2021/12/14 07:53:14;;;;;;;7.10;4.93;;;;;;;0.95;87.46;95193.31;5029748;28;20199;-72
2021/12/14 07:55:48;;;;;;;11.63;6.22;;;;;;;1.20;87.98;95198.06;5017859;28;20240;-72
2021/12/14 07:58:15;;;;;;;9.93;5.57;;;;;;;1.28;87.46;95201.06;5022916;28;20208;-72
2021/12/14 08:00:42;;;;;;;11.13;6.43;;;;;;;1.22;87.42;95195.94;5024080;28;20659;-73
2021/12/14 08:03:11;;;;;;;8.73;4.78;;;;;;;1.31;87.25;95205.88;5023142;28;20201;-72
2021/12/14 08:05:42;;;;;;;8.93;5.85;;;;;;;1.50;86.61;95203.63;5023885;28;20212;-75
2021/12/14 08:08:16;;;;;;;10.00;4.60;;;;;;;1.41;86.52;95208.63;5010915;28;20259;-72
2021/12/14 08:10:49;;;;;;;9.30;4.97;;;;;;;1.21;86.42;95215.69;5012980;28;20619;-72
2021/12/14 08:13:18;;;;;;;15.18;7.95;;;;;;;1.28;86.55;95194.91;5029927;28;20247;-72
2021/12/14 08:15:50;;;;;;;10.15;5.80;;;;;;;1.37;86.61;95215.53;5030010;28;20236;-71
2021/12/14 08:18:20;;;;;;;10.48;5.35;;;;;;;1.27;86.86;95214.66;5030006;28;20283;-71
2021/12/14 08:20:53;;;;;;;8.85;5.55;;;;;;;1.65;86.63;95216.25;5017383;28;20299;-71
2021/12/14 08:23:24;;;;;;;9.98;5.07;;;;;;;1.53;86.12;95218.31;5008243;28;20225;-72
2021/12/14 08:25:56;;;;;;;12.85;6.65;;;;;;;1.48;86.21;95216.44;5015580;28;20659;-72
2021/12/14 08:28:23;;;;;;;10.90;4.68;;;;;;;1.64;85.11;95215.44;5008746;28;20205;-73
2021/12/14 08:30:57;;;;;;;10.07;6.05;;;;;;;1.63;85.06;95223.75;5029779;28;20289;-73
2021/12/14 08:33:26;;;;;;;10.20;6.43;;;;;;;1.37;86.49;95217.38;5030123;28;20253;-73
2021/12/14 08:35:56;;;;;;;12.90;5.95;;;;;;;1.55;86.38;95216.19;5023329;28;20220;-73
2021/12/14 08:38:24;;;;;;;5.13;3.55;;;;;;;1.43;85.62;95211.03;5029855;28;20231;-72
2021/12/14 08:40:57;;;;;;;8.88;5.00;;;;;;;1.69;85.35;95206.69;5018338;28;20237;-73
2021/12/14 08:43:31;;;;;;;11.18;6.45;;;;;;;1.68;85.41;95205.06;5032951;28;20196;-72
2021/12/14 08:46:01;;;;;;;10.93;5.93;;;;;;;1.74;85.44;95204.06;5033258;28;20273;-71
2021/12/14 08:48:32;;;;;;;14.02;6.95;;;;;;;2.00;85.08;95208.47;5033238;28;20562;-71
2021/12/14 08:51:12;;;;;;;21.20;8.07;;;;;;;2.06;84.24;95207.41;5033979;28;20625;-71
2021/12/14 08:53:43;;;;;;;13.07;7.78;;;;;;;2.14;84.21;95206.94;5034260;28;20199;-71
2021/12/14 08:56:12;;;;;;;13.45;8.27;;;;;;;2.24;84.01;95186.66;5034435;28;20220;-72
2021/12/14 08:58:40;;;;;;;16.40;7.75;;;;;;;2.33;83.38;95198.44;5033389;28;20643;-72
2021/12/14 09:01:13;;;;;;;12.73;6.57;;;;;;;2.11;83.33;95198.63;5032427;28;20204;-72
2021/12/14 09:03:45;;;;;;;10.77;6.32;;;;;;;2.04;83.81;95201.56;5033195;28;20200;-71
2021/12/14 09:06:15;;;;;;;10.55;5.80;;;;;;;1.80;84.86;95192.31;5008111;28;20189;-72
2021/12/14 09:08:44;;;;;;;13.00;6.57;;;;;;;2.08;84.12;95188.47;5033561;28;20204;-71
2021/12/14 09:11:16;;;;;;;14.98;7.15;;;;;;;2.13;84.06;95197.31;5033135;28;20262;-72
2021/12/14 09:13:44;;;;;;;13.43;6.82;;;;;;;2.33;83.08;95193.09;5032918;28;20480;-72
2021/12/14 09:16:14;;;;;;;12.38;7.10;;;;;;;2.52;83.00;95194.25;5032662;28;20224;-72
2021/12/14 09:18:45;;;;;;;13.65;6.88;;;;;;;2.47;83.06;95191.53;5033027;28;20254;-72
2021/12/14 09:21:15;;;;;;;12.32;6.43;;;;;;;2.57;82.63;95190.78;5033220;28;20239;-72
2021/12/14 09:23:46;;;;;;;10.80;5.90;;;;;;;2.88;82.06;95178.25;5033003;28;20574;-71
2021/12/14 09:26:19;;;;;;;11.95;6.03;;;;;;;2.85;82.37;95177.75;5033026;28;20252;-74
2021/12/14 09:28:47;;;;;;;14.95;8.18;;;;;;;2.89;81.34;95177.19;5032598;28;20279;-75
2021/12/14 09:31:20;;;;;;;13.98;7.32;;;;;;;3.05;80.39;95179.63;5032819;28;20251;-73
2021/12/14 09:33:47;;;;;;;14.27;7.50;;;;;;;2.53;81.64;95163.78;5020092;28;20278;-75
2021/12/14 09:36:14;;;;;;;10.77;6.18;;;;;;;2.71;81.09;95168.63;5019561;28;20232;-72
2021/12/14 09:38:44;;;;;;;15.80;7.50;;;;;;;3.05;81.55;95160.09;5032607;28;20216;-72
2021/12/14 09:41:17;;;;;;;10.50;5.55;;;;;;;3.00;81.41;95157.44;5015428;28;20290;-70
2021/12/14 09:43:47;;;;;;;14.43;7.25;;;;;;;2.81;81.45;95165.97;5033134;28;20204;-72
2021/12/14 09:46:15;;;;;;;12.55;6.30;;;;;;;2.69;82.14;95165.41;5032739;28;20204;-72
2021/12/14 09:48:45;;;;;;;13.52;7.15;;;;;;;2.58;82.00;95155.78;5020376;28;20722;-72
2021/12/14 09:51:16;;;;;;;14.27;7.88;;;;;;;2.58;82.27;95163.78;5031607;28;20208;-72
2021/12/14 09:53:46;;;;;;;13.52;7.90;;;;;;;2.66;82.96;95155.25;5022667;28;20263;-72
2021/12/14 09:56:19;;;;;;;10.98;5.85;;;;;;;2.61;82.73;95151.75;5016659;28;20223;-72
2021/12/14 09:58:50;;;;;;;15.05;7.53;;;;;;;2.74;82.58;95154.69;5032409;28;20196;-72
2021/12/14 10:01:21;;;;;;;10.73;5.85;;;;;;;2.44;82.33;95143.97;5032489;28;20262;-72
2021/12/14 10:03:52;;;;;;;14.30;8.02;;;;;;;2.87;83.13;95147.25;5031916;28;20258;-72
2021/12/14 10:06:24;;;;;;;13.07;7.88;;;;;;;2.75;81.76;95145.63;5006939;28;20294;-71
2021/12/14 10:08:58;;;;;;;14.32;9.05;;;;;;;2.70;81.39;95152.84;5032363;28;20192;-70
2021/12/14 10:11:41;;;;;;;15.80;8.32;;;;;;;2.89;82.55;95150.44;5032479;28;20218;-71
2021/12/14 10:14:09;;;;;;;11.40;6.05;;;;;;;2.96;80.44;95145.66;5032361;28;20279;-71
2021/12/14 10:16:37;;;;;;;10.90;6.30;;;;;;;3.12;80.41;95149.94;5032124;28;20607;-71
2021/12/14 10:19:07;;;;;;;11.98;6.72;;;;;;;3.07;80.67;95147.25;5031909;28;20275;-70
2021/12/14 10:21:37;;;;;;;15.20;7.65;;;;;;;3.00;81.21;95152.09;5020026;28;20257;-72
2021/12/14 10:24:07;;;;;;;15.50;8.07;;;;;;;3.16;81.37;95142.97;5032101;28;20204;-70
2021/12/14 10:26:38;;;;;;;18.65;12.27;;;;;;;3.13;80.42;95143.53;5031871;28;20567;-71
2021/12/14 10:29:07;;;;;;;13.40;7.85;;;;;;;2.88;82.38;95143.47;5032499;28;20254;-72
2021/12/14 10:31:40;;;;;;;12.45;7.07;;;;;;;2.57;83.23;95148.00;5018530;28;20343;-71
2021/12/14 10:34:14;;;;;;;15.18;8.45;;;;;;;2.51;83.49;95144.50;5031391;28;20192;-71
2021/12/14 10:36:46;;;;;;;15.52;8.05;;;;;;;2.70;83.10;95142.94;5031953;28;20259;-72
2021/12/14 10:39:36;;;;;;;13.45;8.25;;;;;;;2.82;82.44;95140.81;5030076;28;20207;-72
2021/12/14 10:44:56;;;;;;;14.30;8.35;;;;;;;3.27;81.88;95136.56;5027270;28;20208;-70
2021/12/14 10:47:26;;;;;;;16.80;8.77;;;;;;;2.96;81.75;95130.41;5012062;28;20686;-71
2021/12/14 10:49:54;;;;;;;17.10;8.10;;;;;;;2.88;82.22;95138.13;5017089;28;20208;-70
2021/12/14 10:52:25;;;;;;;14.40;7.60;;;;;;;2.92;82.24;95133.88;5031730;28;20643;-71
2021/12/14 10:54:56;;;;;;;19.42;8.95;;;;;;;2.93;82.63;95135.47;5031800;28;20262;-71
2021/12/14 10:57:29;;;;;;;18.17;8.68;;;;;;;2.76;82.59;95135.72;5031729;28;20231;-70
2021/12/14 10:59:58;;;;;;;16.10;8.20;;;;;;;2.56;83.49;95131.16;5031584;28;20196;-70
2021/12/14 11:02:27;;;;;;;23.77;11.02;;;;;;;2.73;83.36;95126.34;5030806;28;20254;-71
2021/12/14 11:04:58;;;;;;;22.33;7.25;;;;;;;2.48;83.74;95129.00;5030930;28;20220;-71
2021/12/14 11:07:38;;;;;;;16.30;8.07;;;;;;;2.52;82.86;95124.72;5016668;28;20205;-71
2021/12/14 11:10:09;;;;;;;14.38;6.38;;;;;;;2.50;83.45;95129.53;5022137;28;20196;-72
2021/12/14 11:12:40;;;;;;;11.82;6.90;;;;;;;2.43;83.61;95129.00;5026222;28;20886;-70
2021/12/14 11:15:11;;;;;;;15.07;7.32;;;;;;;2.30;84.07;95126.81;5023765;28;20238;-70
2021/12/14 11:20:27;;;;;;;16.60;8.02;;;;;;;2.53;83.36;95125.53;5030233;28;20270;-70
2021/12/14 11:22:57;;;;;;;15.30;6.97;;;;;;;2.46;83.70;95115.09;5030323;28;20620;-71
2021/12/14 11:25:27;;;;;;;16.58;8.75;;;;;;;2.56;83.87;95114.31;5031404;28;20205;-71
2021/12/14 11:28:04;;;;;;;12.82;6.80;;;;;;;2.44;83.98;95112.69;5031242;28;20200;-71
2021/12/14 11:30:36;;;;;;;15.43;7.25;;;;;;;2.35;85.07;95124.16;5030754;28;20266;-71
2021/12/14 11:33:09;;;;;;;12.88;7.10;;;;;;;2.18;84.35;95115.56;5021609;28;20199;-71
2021/12/14 11:35:40;;;;;;;18.73;8.23;;;;;;;2.24;85.73;95117.16;5009375;28;20193;-71
2021/12/14 11:38:22;;;;;;;15.05;7.63;;;;;;;2.20;84.85;95116.09;5024128;28;20225;-71
2021/12/14 11:40:49;;;;;;;14.45;7.38;;;;;;;2.23;84.91;95112.88;5010721;28;20466;-72
2021/12/14 11:43:22;;;;;;;18.10;7.63;;;;;;;2.09;85.23;95102.69;5024812;28;20197;-72
2021/12/14 11:45:50;;;;;;;13.45;7.63;;;;;;;2.14;86.00;95108.06;5010948;28;20201;-72
2021/12/14 11:48:29;;;;;;;10.30;7.05;;;;;;;2.18;85.50;95110.22;5029338;28;20694;-73
2021/12/14 11:50:58;;;;;;;12.25;7.15;;;;;;;2.08;85.67;95111.78;5030699;28;20192;-75
2021/12/14 11:53:25;;;;;;;14.63;8.95;;;;;;;1.99;86.35;95116.03;5022020;28;20213;-73
2021/12/14 11:55:55;;;;;;;14.02;8.25;;;;;;;1.85;86.18;95104.22;5025367;28;20282;-73
2021/12/14 11:58:30;;;;;;;16.25;7.45;;;;;;;1.96;85.61;95108.53;5030491;28;20200;-74
2021/12/14 12:01:04;;;;;;;12.00;7.68;;;;;;;1.88;85.83;95103.69;5030549;28;20635;-72
2021/12/14 12:03:42;;;;;;;13.68;6.68;;;;;;;1.84;85.97;95107.16;5030254;28;20250;-72
2021/12/14 12:06:24;;;;;;;16.30;8.57;;;;;;;1.74;86.20;95107.91;5004130;28;20226;-71
2021/12/14 12:11:45;;;;;;;13.25;6.63;;;;;;;1.97;86.13;95118.16;5017958;28;20380;-71
2021/12/14 12:14:27;;;;;;;17.73;9.00;;;;;;;1.74;86.42;95099.91;5010810;28;20201;-73
2021/12/14 12:16:58;;;;;;;18.25;7.18;;;;;;;1.79;86.40;95098.03;5025554;28;20597;-72
2021/12/14 12:19:28;;;;;;;15.82;6.53;;;;;;;2.05;86.40;95106.94;5029723;28;20254;-72
2021/12/14 12:21:56;;;;;;;17.17;9.05;;;;;;;2.33;85.42;95095.00;5029764;28;20621;-72
2021/12/14 12:24:39;;;;;;;16.02;8.85;;;;;;;2.42;85.33;95100.66;5029567;28;20200;-73